Time;durP1;ratioP1;P1;durP2;ratioP2;P2;SDS_P1;SDS_P2;PMS_P1;PMS_P2;Temp;Humidity;BMP_temperature;BMP_pressure;BME280_temperature;BME280_humidity;BME280_pressure;Samples;Min_cycle;Max_cycle;Signal;HPM_P1;HPM_P2
2023/07/20 00:01:45;;;;;;;5.43;2.83;;;;;;;;;;5073742;28;20424;-73
2023/07/20 00:04:12;;;;;;;6.50;2.78;;;;;;;;;;5073731;28;20044;-71
2023/07/20 00:06:40;;;;;;;4.78;2.90;;;;;;;;;;5055765;28;20097;-71
2023/07/20 00:09:09;;;;;;;4.43;3.10;;;;;;;;;;5073552;28;20044;-72
2023/07/20 00:11:39;;;;;;;6.30;2.92;;;;;;;;;;5073495;28;20036;-72
2023/07/20 00:14:05;;;;;;;4.63;3.00;;;;;;;;;;5073524;28;20044;-72
2023/07/20 00:16:32;;;;;;;3.65;2.72;;;;;;;;;;5073356;28;20052;-71
2023/07/20 00:18:58;;;;;;;4.50;3.20;;;;;;;;;;5073335;28;20043;-72
2023/07/20 00:21:24;;;;;;;3.70;2.92;;;;;;;;;;5073537;28;20369;-71
2023/07/20 00:23:50;;;;;;;4.15;3.00;;;;;;;;;;5073479;28;20048;-72
2023/07/20 00:26:17;;;;;;;4.32;2.90;;;;;;;;;;5073249;28;20045;-72
2023/07/20 00:28:43;;;;;;;5.55;3.17;;;;;;;;;;5073208;28;20089;-71
2023/07/20 00:31:09;;;;;;;6.30;3.10;;;;;;;;;;5073087;28;20044;-71
2023/07/20 00:33:36;;;;;;;4.30;2.88;;;;;;;;;;5073125;28;20437;-71
2023/07/20 00:36:02;;;;;;;4.45;3.08;;;;;;;;;;5072956;28;20048;-71
2023/07/20 00:38:28;;;;;;;5.07;3.10;;;;;;;;;;5055234;28;20045;-71
2023/07/20 00:40:54;;;;;;;4.00;2.90;;;;;;;;;;5073351;28;20044;-71
2023/07/20 00:43:20;;;;;;;5.45;3.15;;;;;;;;;;5072802;28;20040;-72
2023/07/20 00:45:46;;;;;;;4.45;3.13;;;;;;;;;;5072392;28;20058;-71
2023/07/20 00:48:15;;;;;;;5.85;3.45;;;;;;;;;;5072845;28;20033;-71
2023/07/20 00:50:41;;;;;;;4.60;3.08;;;;;;;;;;5070639;28;20048;-71
2023/07/20 00:53:07;;;;;;;4.13;3.33;;;;;;;;;;5072900;28;20041;-72
2023/07/20 00:55:34;;;;;;;5.40;3.30;;;;;;;;;;5072284;28;20083;-71
2023/07/20 00:58:01;;;;;;;4.95;3.15;;;;;;;;;;5071093;28;20052;-71
2023/07/20 01:00:27;;;;;;;7.03;3.80;;;;;;;;;;5071035;28;20106;-71
2023/07/20 01:02:54;;;;;;;4.25;3.33;;;;;;;;;;5072599;28;20040;-72
2023/07/20 01:05:20;;;;;;;4.85;3.30;;;;;;;;;;5072540;28;20051;-71
2023/07/20 01:07:56;;;;;;;5.13;3.35;;;;;;;;;;5072633;28;20403;-71
2023/07/20 01:10:26;;;;;;;5.80;3.65;;;;;;;;;;5072462;28;20045;-71
2023/07/20 01:12:53;;;;;;;6.63;4.13;;;;;;;;;;5052925;28;20055;-72
2023/07/20 01:15:19;;;;;;;7.07;4.25;;;;;;;;;;5072612;28;20047;-72
2023/07/20 01:17:46;;;;;;;5.28;4.15;;;;;;;;;;5071893;28;20052;-72
2023/07/20 01:20:14;;;;;;;6.75;4.50;;;;;;;;;;5072432;28;20142;-73
2023/07/20 01:22:44;;;;;;;5.55;3.72;;;;;;;;;;5072422;28;20044;-72
2023/07/20 01:25:45;;;;;;;5.22;4.32;;;;;;;;;;5072630;28;20056;-72
2023/07/20 01:28:30;;;;;;;5.60;4.10;;;;;;;;;;5010677;28;20050;-72
2023/07/20 01:31:00;;;;;;;5.13;4.00;;;;;;;;;;5050081;28;20544;-73
2023/07/20 01:33:26;;;;;;;6.00;4.18;;;;;;;;;;5072233;28;20519;-73
2023/07/20 01:35:57;;;;;;;7.75;4.47;;;;;;;;;;5072057;28;20378;-73
2023/07/20 01:38:24;;;;;;;6.43;4.28;;;;;;;;;;5072540;28;20453;-72
2023/07/20 01:40:50;;;;;;;7.07;4.03;;;;;;;;;;5072186;28;20045;-73
2023/07/20 01:43:17;;;;;;;5.65;4.30;;;;;;;;;;5070946;28;20090;-73
2023/07/20 01:45:43;;;;;;;5.47;4.20;;;;;;;;;;5069607;28;20060;-73
2023/07/20 01:48:10;;;;;;;5.93;4.50;;;;;;;;;;5058639;28;20041;-72
2023/07/20 01:50:36;;;;;;;7.15;4.50;;;;;;;;;;5070638;28;20045;-72
2023/07/20 01:53:02;;;;;;;8.32;4.43;;;;;;;;;;5072043;28;20053;-73
2023/07/20 01:55:28;;;;;;;7.38;3.92;;;;;;;;;;5071746;28;20048;-73
2023/07/20 01:57:56;;;;;;;5.78;4.20;;;;;;;;;;5069277;28;20163;-72
2023/07/20 02:00:24;;;;;;;5.05;4.32;;;;;;;;;;5052669;28;20050;-72
2023/07/20 02:02:51;;;;;;;6.90;3.90;;;;;;;;;;5074564;28;20057;-72
2023/07/20 02:05:17;;;;;;;4.90;3.53;;;;;;;;;;5074762;28;20044;-73
2023/07/20 02:07:43;;;;;;;4.57;3.67;;;;;;;;;;5074613;28;20045;-73
2023/07/20 02:10:10;;;;;;;6.63;3.75;;;;;;;;;;5075824;28;20131;-73
2023/07/20 02:12:36;;;;;;;6.47;3.40;;;;;;;;;;5075958;28;20048;-73
2023/07/20 02:15:03;;;;;;;7.00;3.70;;;;;;;;;;5074390;28;20098;-73
2023/07/20 02:17:29;;;;;;;5.38;3.75;;;;;;;;;;5075733;28;20170;-73
2023/07/20 02:19:57;;;;;;;4.13;3.47;;;;;;;;;;5075646;28;20119;-72
2023/07/20 02:22:24;;;;;;;5.85;3.30;;;;;;;;;;5075417;28;20052;-73
2023/07/20 02:24:50;;;;;;;5.88;3.00;;;;;;;;;;5075713;28;20052;-73
2023/07/20 02:27:16;;;;;;;4.45;2.92;;;;;;;;;;5075584;28;20084;-73
2023/07/20 02:29:43;;;;;;;4.72;3.33;;;;;;;;;;5075807;28;20040;-73
2023/07/20 02:32:10;;;;;;;5.28;3.50;;;;;;;;;;5072940;28;20481;-72
2023/07/20 02:34:36;;;;;;;4.85;3.58;;;;;;;;;;5073077;28;20412;-73
2023/07/20 02:37:03;;;;;;;7.10;4.00;;;;;;;;;;5073388;28;20105;-72
2023/07/20 02:39:29;;;;;;;5.25;3.30;;;;;;;;;;5072556;28;20553;-71
2023/07/20 02:41:55;;;;;;;6.60;3.80;;;;;;;;;;5075058;28;20063;-71
2023/07/20 02:44:21;;;;;;;5.05;3.67;;;;;;;;;;5075269;28;20400;-71
2023/07/20 02:46:49;;;;;;;5.78;3.63;;;;;;;;;;5074998;28;20052;-71
2023/07/20 02:49:15;;;;;;;5.53;3.80;;;;;;;;;;5074937;28;20098;-72
2023/07/20 02:51:42;;;;;;;6.93;3.92;;;;;;;;;;5074833;28;20064;-72
2023/07/20 02:54:08;;;;;;;6.25;3.97;;;;;;;;;;5069322;28;20109;-72
2023/07/20 02:56:34;;;;;;;6.25;4.00;;;;;;;;;;5076942;28;20046;-72
2023/07/20 02:59:02;;;;;;;6.70;3.58;;;;;;;;;;5095940;28;20429;-72
2023/07/20 03:01:29;;;;;;;5.65;3.67;;;;;;;;;;5076893;28;20082;-72
2023/07/20 03:03:55;;;;;;;6.72;3.90;;;;;;;;;;5094185;28;20484;-72
2023/07/20 03:06:22;;;;;;;6.20;3.70;;;;;;;;;;5094605;28;20090;-71
2023/07/20 03:08:48;;;;;;;7.05;3.90;;;;;;;;;;5094991;28;20074;-72
2023/07/20 03:11:15;;;;;;;8.40;4.30;;;;;;;;;;5094842;28;20094;-72
2023/07/20 03:13:42;;;;;;;7.13;4.18;;;;;;;;;;5093694;28;20043;-72
2023/07/20 03:16:11;;;;;;;5.57;4.25;;;;;;;;;;5094075;28;20044;-72
2023/07/20 03:18:40;;;;;;;5.70;4.45;;;;;;;;;;5076382;28;20062;-72
2023/07/20 03:21:07;;;;;;;6.55;4.45;;;;;;;;;;5094352;28;20059;-72
2023/07/20 03:23:33;;;;;;;5.72;3.88;;;;;;;;;;5094691;28;20119;-71
2023/07/20 03:25:59;;;;;;;8.35;4.00;;;;;;;;;;5094148;28;20046;-71
2023/07/20 03:28:25;;;;;;;7.03;4.15;;;;;;;;;;5094642;28;20131;-71
2023/07/20 03:30:55;;;;;;;6.13;3.80;;;;;;;;;;5094561;28;20077;-71
2023/07/20 03:33:22;;;;;;;9.18;4.50;;;;;;;;;;5094639;28;20044;-72
2023/07/20 03:35:48;;;;;;;6.90;3.97;;;;;;;;;;5094403;28;20083;-72
2023/07/20 03:38:14;;;;;;;5.47;3.97;;;;;;;;;;5076308;28;20115;-72
2023/07/20 03:40:49;;;;;;;7.25;4.15;;;;;;;;;;5094280;28;20138;-71
2023/07/20 03:43:15;;;;;;;6.60;4.32;;;;;;;;;;5094422;28;20067;-72
2023/07/20 03:45:41;;;;;;;7.25;4.18;;;;;;;;;;5094169;28;20059;-71
2023/07/20 03:48:07;;;;;;;5.82;4.20;;;;;;;;;;5077813;28;20037;-71
2023/07/20 03:50:34;;;;;;;6.28;4.20;;;;;;;;;;5073822;28;20047;-71
2023/07/20 03:53:00;;;;;;;5.50;3.95;;;;;;;;;;5073667;28;20044;-71
2023/07/20 03:55:26;;;;;;;6.20;3.90;;;;;;;;;;5072969;28;20392;-72
2023/07/20 03:57:52;;;;;;;5.25;3.90;;;;;;;;;;5073934;28;20519;-71
2023/07/20 04:00:18;;;;;;;6.65;3.78;;;;;;;;;;5070024;28;20496;-72
2023/07/20 04:02:45;;;;;;;4.97;4.30;;;;;;;;;;5092065;28;20403;-72
2023/07/20 04:05:11;;;;;;;4.90;3.88;;;;;;;;;;5091435;28;20043;-71
2023/07/20 04:07:37;;;;;;;6.25;3.95;;;;;;;;;;5092763;28;20040;-71
2023/07/20 04:10:03;;;;;;;5.43;3.67;;;;;;;;;;5094049;28;20141;-71
2023/07/20 04:12:29;;;;;;;4.88;3.92;;;;;;;;;;5093881;28;20048;-71
2023/07/20 04:14:55;;;;;;;6.38;3.67;;;;;;;;;;5093812;28;20037;-72
2023/07/20 04:17:22;;;;;;;6.28;3.40;;;;;;;;;;5075370;28;20055;-72
2023/07/20 04:19:48;;;;;;;6.38;3.60;;;;;;;;;;5093690;28;20048;-72
2023/07/20 04:22:17;;;;;;;5.95;3.45;;;;;;;;;;5075582;28;20472;-71
2023/07/20 04:24:43;;;;;;;5.82;3.90;;;;;;;;;;5089940;28;20425;-72
2023/07/20 04:27:09;;;;;;;5.85;3.75;;;;;;;;;;5093170;28;20385;-73
2023/07/20 04:29:35;;;;;;;4.97;3.30;;;;;;;;;;5092059;28;20043;-73
2023/07/20 04:32:02;;;;;;;5.70;3.35;;;;;;;;;;5090659;28;20036;-72
2023/07/20 04:34:28;;;;;;;5.93;3.58;;;;;;;;;;5091475;28;20040;-72
2023/07/20 04:36:54;;;;;;;5.45;3.70;;;;;;;;;;5075360;28;20399;-72
2023/07/20 04:39:20;;;;;;;5.78;3.30;;;;;;;;;;5093152;28;20044;-72
2023/07/20 04:41:46;;;;;;;5.30;3.50;;;;;;;;;;5092922;28;20061;-73
2023/07/20 04:44:14;;;;;;;8.00;3.30;;;;;;;;;;5093004;28;20484;-73
2023/07/20 04:46:40;;;;;;;4.47;3.33;;;;;;;;;;5092678;28;20109;-72
2023/07/20 04:49:06;;;;;;;6.00;3.00;;;;;;;;;;5075244;28;20067;-73
2023/07/20 04:51:32;;;;;;;4.57;3.10;;;;;;;;;;5071306;28;20123;-72
2023/07/20 04:53:59;;;;;;;4.78;3.42;;;;;;;;;;5072645;28;20843;-73
2023/07/20 04:56:25;;;;;;;6.35;3.40;;;;;;;;;;5072639;28;20083;-73
2023/07/20 04:58:51;;;;;;;7.32;3.22;;;;;;;;;;5071960;28;20057;-72
2023/07/20 05:01:17;;;;;;;4.35;3.10;;;;;;;;;;5072387;28;20059;-72
2023/07/20 05:03:44;;;;;;;7.20;3.38;;;;;;;;;;5054749;28;20151;-72
2023/07/20 05:06:10;;;;;;;5.25;2.90;;;;;;;;;;5072441;28;20075;-73
2023/07/20 05:08:36;;;;;;;6.13;2.95;;;;;;;;;;5070797;28;20397;-72
2023/07/20 05:11:02;;;;;;;5.38;3.08;;;;;;;;;;5072415;28;20495;-72
2023/07/20 05:13:28;;;;;;;4.35;2.80;;;;;;;;;;5071958;28;20048;-73
2023/07/20 05:15:54;;;;;;;5.30;2.75;;;;;;;;;;5070641;28;20125;-72
2023/07/20 05:18:21;;;;;;;6.13;2.88;;;;;;;;;;5054466;28;20052;-72
2023/07/20 05:20:48;;;;;;;3.90;2.75;;;;;;;;;;5054068;28;20076;-72
2023/07/20 05:23:14;;;;;;;4.45;2.55;;;;;;;;;;5072514;28;20098;-72
2023/07/20 05:25:40;;;;;;;5.03;2.78;;;;;;;;;;5072064;28;20056;-72
2023/07/20 05:28:06;;;;;;;6.30;2.75;;;;;;;;;;5072624;28;20048;-72
2023/07/20 05:30:33;;;;;;;7.72;2.80;;;;;;;;;;5072363;28;20067;-72
2023/07/20 05:32:59;;;;;;;4.55;2.55;;;;;;;;;;5072311;28;20044;-72
2023/07/20 05:35:26;;;;;;;5.60;2.40;;;;;;;;;;5072008;28;20391;-72
2023/07/20 05:37:52;;;;;;;4.50;2.60;;;;;;;;;;5071996;28;20401;-72
2023/07/20 05:40:18;;;;;;;5.35;2.50;;;;;;;;;;5072031;28;20044;-72
2023/07/20 05:42:48;;;;;;;3.72;2.40;;;;;;;;;;5072191;28;20048;-72
2023/07/20 05:45:15;;;;;;;5.30;2.40;;;;;;;;;;5071775;28;20145;-72
2023/07/20 05:47:44;;;;;;;6.55;2.42;;;;;;;;;;5077340;28;20483;-72
2023/07/20 05:50:11;;;;;;;3.35;2.20;;;;;;;;;;5092114;28;20059;-72
2023/07/20 05:52:38;;;;;;;4.72;2.20;;;;;;;;;;5092190;28;20129;-72
2023/07/20 05:55:05;;;;;;;3.17;1.92;;;;;;;;;;5092248;28;20055;-72
2023/07/20 05:57:31;;;;;;;4.88;2.00;;;;;;;;;;5073897;28;20051;-72
2023/07/20 05:59:57;;;;;;;4.05;2.15;;;;;;;;;;5092128;28;20044;-72
2023/07/20 06:02:23;;;;;;;4.70;2.00;;;;;;;;;;5057006;28;20051;-72
2023/07/20 06:04:49;;;;;;;4.90;2.05;;;;;;;;;;5091830;28;20051;-72
2023/07/20 06:07:16;;;;;;;6.88;2.10;;;;;;;;;;5092198;28;20040;-73
2023/07/20 06:09:42;;;;;;;6.57;2.00;;;;;;;;;;5092026;28;20048;-71
2023/07/20 06:12:08;;;;;;;4.38;2.03;;;;;;;;;;5091920;28;20400;-71
2023/07/20 06:14:38;;;;;;;6.40;2.38;;;;;;;;;;5073676;28;20059;-71
2023/07/20 06:17:04;;;;;;;5.38;2.00;;;;;;;;;;5091636;28;20044;-72
2023/07/20 06:19:30;;;;;;;5.70;1.90;;;;;;;;;;5073649;28;20097;-72
2023/07/20 06:21:56;;;;;;;3.88;1.88;;;;;;;;;;5091561;28;20048;-72
2023/07/20 06:24:22;;;;;;;5.13;1.80;;;;;;;;;;5091361;28;20083;-72
2023/07/20 06:26:49;;;;;;;5.40;1.98;;;;;;;;;;5089429;28;20140;-72
2023/07/20 06:29:15;;;;;;;6.65;1.85;;;;;;;;;;5090458;28;20055;-72
2023/07/20 06:31:41;;;;;;;4.55;1.70;;;;;;;;;;5088840;28;20123;-71
2023/07/20 06:34:07;;;;;;;4.00;1.80;;;;;;;;;;5091581;28;20537;-71
2023/07/20 06:36:33;;;;;;;4.15;1.88;;;;;;;;;;5091510;28;20043;-71
2023/07/20 06:38:59;;;;;;;6.50;2.08;;;;;;;;;;5091609;28;20460;-71
2023/07/20 06:41:26;;;;;;;4.93;1.90;;;;;;;;;;5073286;28;20515;-72
2023/07/20 06:43:57;;;;;;;6.18;2.05;;;;;;;;;;5091197;28;20044;-72
2023/07/20 06:46:23;;;;;;;5.65;2.20;;;;;;;;;;5091189;28;20055;-72
2023/07/20 06:48:49;;;;;;;6.20;2.10;;;;;;;;;;5077209;28;20476;-71
2023/07/20 06:51:16;;;;;;;5.78;1.92;;;;;;;;;;5074666;28;20045;-72
2023/07/20 06:53:42;;;;;;;7.00;1.85;;;;;;;;;;5079667;28;20036;-72
2023/07/20 06:56:08;;;;;;;6.07;1.80;;;;;;;;;;5095092;28;20040;-73
2023/07/20 06:58:35;;;;;;;8.05;1.83;;;;;;;;;;5095059;28;20173;-72
2023/07/20 07:01:05;;;;;;;6.28;1.95;;;;;;;;;;5076850;28;20052;-72
2023/07/20 07:03:31;;;;;;;4.65;2.13;;;;;;;;;;5060215;28;20453;-72
2023/07/20 07:05:58;;;;;;;3.55;1.92;;;;;;;;;;5094756;28;20488;-72
2023/07/20 07:08:24;;;;;;;6.18;2.22;;;;;;;;;;5076973;28;20079;-72
2023/07/20 07:10:51;;;;;;;5.75;1.85;;;;;;;;;;5094717;28;20134;-72
2023/07/20 07:13:17;;;;;;;9.75;2.13;;;;;;;;;;5095102;28;20154;-72
2023/07/20 07:15:43;;;;;;;5.10;2.10;;;;;;;;;;5094459;28;20047;-72
2023/07/20 07:18:09;;;;;;;4.22;2.15;;;;;;;;;;5076675;28;20056;-72
2023/07/20 07:20:36;;;;;;;5.07;2.30;;;;;;;;;;5094530;28;20430;-72
2023/07/20 07:23:11;;;;;;;4.78;2.20;;;;;;;;;;5093968;28;20051;-72
2023/07/20 07:25:37;;;;;;;4.63;2.33;;;;;;;;;;5093953;28;20047;-72
2023/07/20 07:28:03;;;;;;;6.40;2.30;;;;;;;;;;5094665;28;20389;-72
2023/07/20 07:30:29;;;;;;;6.40;2.63;;;;;;;;;;5094545;28;20131;-72
2023/07/20 07:32:55;;;;;;;10.30;2.70;;;;;;;;;;5091880;28;20090;-72
2023/07/20 07:35:22;;;;;;;5.95;2.60;;;;;;;;;;5092578;28;20042;-72
2023/07/20 07:37:48;;;;;;;7.32;2.70;;;;;;;;;;5094208;28;20169;-72
2023/07/20 07:40:15;;;;;;;10.43;2.80;;;;;;;;;;5094266;28;20510;-72
2023/07/20 07:42:41;;;;;;;7.18;2.92;;;;;;;;;;5076252;28;20047;-73
2023/07/20 07:45:07;;;;;;;5.45;2.60;;;;;;;;;;5075852;28;20048;-72
2023/07/20 07:47:34;;;;;;;8.43;2.72;;;;;;;;;;5089309;28;20048;-73
2023/07/20 07:50:00;;;;;;;8.55;2.63;;;;;;;;;;5073820;28;20155;-71
2023/07/20 07:52:26;;;;;;;8.90;2.72;;;;;;;;;;5073695;28;20059;-72
2023/07/20 07:54:52;;;;;;;6.95;2.45;;;;;;;;;;5072840;28;20076;-72
2023/07/20 07:57:18;;;;;;;6.80;2.30;;;;;;;;;;5053945;28;20040;-72
2023/07/20 07:59:44;;;;;;;5.18;2.10;;;;;;;;;;5069853;28;20507;-72
2023/07/20 08:02:11;;;;;;;4.85;2.20;;;;;;;;;;5073259;28;20416;-71
2023/07/20 08:04:37;;;;;;;5.80;2.30;;;;;;;;;;5071733;28;20075;-72
2023/07/20 08:07:05;;;;;;;6.18;2.00;;;;;;;;;;5072320;28;20054;-72
2023/07/20 08:09:32;;;;;;;6.65;2.35;;;;;;;;;;5073254;28;20041;-72
2023/07/20 08:11:59;;;;;;;7.85;2.08;;;;;;;;;;5073163;28;20048;-72
2023/07/20 08:14:25;;;;;;;7.25;2.20;;;;;;;;;;5055535;28;20048;-73
2023/07/20 08:16:52;;;;;;;7.90;2.00;;;;;;;;;;5055348;28;20084;-73
2023/07/20 08:19:20;;;;;;;5.95;1.77;;;;;;;;;;5073182;28;20045;-72
2023/07/20 08:21:46;;;;;;;5.45;1.83;;;;;;;;;;5073067;28;20052;-72
2023/07/20 08:24:12;;;;;;;4.82;2.00;;;;;;;;;;5072187;28;20040;-72
2023/07/20 08:26:38;;;;;;;9.85;1.90;;;;;;;;;;5055324;28;20373;-73
2023/07/20 08:29:05;;;;;;;4.95;2.03;;;;;;;;;;5073226;28;20514;-72
2023/07/20 08:31:31;;;;;;;4.68;1.75;;;;;;;;;;5073066;28;20129;-73
2023/07/20 08:33:57;;;;;;;8.52;1.80;;;;;;;;;;5072840;28;20174;-72
2023/07/20 08:36:24;;;;;;;5.40;1.80;;;;;;;;;;5073353;28;20048;-73
2023/07/20 08:38:50;;;;;;;3.45;1.40;;;;;;;;;;5074926;28;20055;-71
2023/07/20 08:41:17;;;;;;;2.30;1.40;;;;;;;;;;5079841;28;20040;-71
2023/07/20 08:43:44;;;;;;;6.22;1.65;;;;;;;;;;5074046;28;20477;-73
2023/07/20 08:46:12;;;;;;;4.35;1.50;;;;;;;;;;5072800;28;20067;-74
2023/07/20 08:48:39;;;;;;;5.35;1.40;;;;;;;;;;5072319;28;20426;-73
2023/07/20 08:51:05;;;;;;;2.88;1.25;;;;;;;;;;5055095;28;20124;-73
2023/07/20 08:53:33;;;;;;;3.50;1.50;;;;;;;;;;5054697;28;20041;-73
2023/07/20 08:56:00;;;;;;;3.75;1.40;;;;;;;;;;5072302;28;20496;-73
2023/07/20 08:58:27;;;;;;;3.72;1.50;;;;;;;;;;5072322;28;20043;-72
2023/07/20 09:00:55;;;;;;;4.45;1.38;;;;;;;;;;5054339;28;20041;-72
2023/07/20 09:03:21;;;;;;;3.30;1.30;;;;;;;;;;5072360;28;20052;-72
2023/07/20 09:05:47;;;;;;;4.63;1.50;;;;;;;;;;5069252;28;20493;-72
2023/07/20 09:08:14;;;;;;;5.05;1.67;;;;;;;;;;5053490;28;20051;-72
2023/07/20 09:10:40;;;;;;;3.83;1.50;;;;;;;;;;5053974;28;20082;-72
2023/07/20 09:13:06;;;;;;;2.55;1.30;;;;;;;;;;5071763;28;20044;-72
2023/07/20 09:15:32;;;;;;;4.68;1.30;;;;;;;;;;5053590;28;20044;-72
2023/07/20 09:18:01;;;;;;;2.47;1.30;;;;;;;;;;5072155;28;20041;-72
2023/07/20 09:20:27;;;;;;;2.78;1.33;;;;;;;;;;5072140;28;20483;-73
2023/07/20 09:22:53;;;;;;;2.45;1.17;;;;;;;;;;5054118;28;20051;-72
2023/07/20 09:25:20;;;;;;;4.18;1.23;;;;;;;;;;5054322;28;20344;-71
2023/07/20 09:27:47;;;;;;;4.68;1.27;;;;;;;;;;5054272;28;20056;-72
2023/07/20 09:30:17;;;;;;;5.50;1.40;;;;;;;;;;5053939;28;20040;-72
2023/07/20 09:32:44;;;;;;;3.03;1.35;;;;;;;;;;5072023;28;20045;-72
2023/07/20 09:35:17;;;;;;;2.42;1.40;;;;;;;;;;5071905;28;20132;-72
2023/07/20 09:37:48;;;;;;;2.90;1.27;;;;;;;;;;5053903;28;20041;-72
2023/07/20 09:40:17;;;;;;;3.85;1.30;;;;;;;;;;5071599;28;20049;-72
2023/07/20 09:42:43;;;;;;;2.90;1.13;;;;;;;;;;5071174;28;20059;-71
2023/07/20 09:45:10;;;;;;;3.45;1.60;;;;;;;;;;5070020;28;20072;-72
2023/07/20 09:47:41;;;;;;;2.58;1.20;;;;;;;;;;5068502;28;20049;-72
2023/07/20 09:50:10;;;;;;;3.15;1.13;;;;;;;;;;5071275;28;20119;-72
2023/07/20 09:52:39;;;;;;;3.90;1.40;;;;;;;;;;5071733;28;20049;-72
2023/07/20 09:55:06;;;;;;;3.33;1.10;;;;;;;;;;5037603;28;20040;-72
2023/07/20 09:57:34;;;;;;;1.52;1.10;;;;;;;;;;5071698;28;20409;-72
2023/07/20 10:00:01;;;;;;;4.40;1.20;;;;;;;;;;5070591;28;20049;-72
2023/07/20 10:02:33;;;;;;;3.53;1.30;;;;;;;;;;5069554;28;20059;-72
2023/07/20 10:05:02;;;;;;;3.25;1.42;;;;;;;;;;5070924;28;20044;-72
2023/07/20 10:07:30;;;;;;;5.75;1.50;;;;;;;;;;5053716;28;20044;-72
2023/07/20 10:09:57;;;;;;;4.50;1.48;;;;;;;;;;5090666;28;20036;-71
2023/07/20 10:12:24;;;;;;;2.75;1.30;;;;;;;;;;5091218;28;20484;-71
2023/07/20 10:15:08;;;;;;;3.53;1.23;;;;;;;;;;5056344;28;20075;-72
2023/07/20 10:17:34;;;;;;;3.35;1.48;;;;;;;;;;5073433;28;20059;-72
2023/07/20 10:20:02;;;;;;;1.88;1.15;;;;;;;;;;5091820;28;20139;-73
2023/07/20 10:22:31;;;;;;;2.30;1.25;;;;;;;;;;5092074;28;20048;-74
2023/07/20 10:24:58;;;;;;;2.22;1.10;;;;;;;;;;5094174;28;20039;-73
2023/07/20 10:27:25;;;;;;;2.92;1.30;;;;;;;;;;5095107;28;20075;-73
2023/07/20 10:29:53;;;;;;;3.15;1.40;;;;;;;;;;5095218;28;20067;-74
2023/07/20 10:32:20;;;;;;;3.25;1.30;;;;;;;;;;5095271;28;20097;-74
2023/07/20 10:34:53;;;;;;;2.13;1.17;;;;;;;;;;5077161;28;20373;-74
2023/07/20 10:37:37;;;;;;;4.20;1.50;;;;;;;;;;5095207;28;20161;-74
2023/07/20 10:40:22;;;;;;;3.63;1.50;;;;;;;;;;5095562;28;20044;-75
2023/07/20 10:42:48;;;;;;;2.00;1.13;;;;;;;;;;5076937;28;20051;-74
2023/07/20 10:45:14;;;;;;;4.28;1.20;;;;;;;;;;5094409;28;20297;-75
2023/07/20 10:47:47;;;;;;;4.25;1.30;;;;;;;;;;5094906;28;20119;-74
2023/07/20 10:50:13;;;;;;;2.30;1.27;;;;;;;;;;5094683;28;20111;-73
2023/07/20 10:52:42;;;;;;;3.25;1.35;;;;;;;;;;5094116;28;20123;-74
2023/07/20 10:55:16;;;;;;;2.13;1.25;;;;;;;;;;5094111;28;20040;-73
2023/07/20 10:57:42;;;;;;;3.25;1.20;;;;;;;;;;5095041;28;20088;-74
2023/07/20 11:00:12;;;;;;;2.80;1.30;;;;;;;;;;5076821;28;20044;-74
2023/07/20 11:02:44;;;;;;;3.17;1.23;;;;;;;;;;5094992;28;20048;-75
2023/07/20 11:05:30;;;;;;;3.95;1.30;;;;;;;;;;5094603;28;20052;-75
2023/07/20 11:07:56;;;;;;;3.72;1.35;;;;;;;;;;5076422;28;20050;-74
2023/07/20 11:10:23;;;;;;;4.18;1.30;;;;;;;;;;5095005;28;20047;-75
2023/07/20 11:13:07;;;;;;;4.88;1.40;;;;;;;;;;5094954;28;20121;-75
2023/07/20 11:15:47;;;;;;;2.47;1.17;;;;;;;;;;5094668;28;20044;-75
2023/07/20 11:18:13;;;;;;;2.40;1.10;;;;;;;;;;5094902;28;20063;-74
2023/07/20 11:20:39;;;;;;;4.57;1.20;;;;;;;;;;5076300;28;20036;-74
2023/07/20 11:23:06;;;;;;;4.03;1.20;;;;;;;;;;5094563;28;20531;-75
2023/07/20 11:25:39;;;;;;;2.22;1.30;;;;;;;;;;5094468;28;20040;-75
2023/07/20 11:28:12;;;;;;;3.38;1.23;;;;;;;;;;5074361;28;20123;-75
2023/07/20 11:30:38;;;;;;;3.40;1.33;;;;;;;;;;5091745;28;20089;-75
2023/07/20 11:33:05;;;;;;;2.58;1.25;;;;;;;;;;5092368;28;20089;-75
2023/07/20 11:35:35;;;;;;;2.50;1.25;;;;;;;;;;5092509;28;20047;-75
2023/07/20 11:38:01;;;;;;;2.72;1.30;;;;;;;;;;5079985;28;20101;-75
2023/07/20 11:40:27;;;;;;;1.67;1.10;;;;;;;;;;5099025;28;20044;-75
2023/07/20 11:42:53;;;;;;;3.85;1.50;;;;;;;;;;5094172;28;20372;-75
2023/07/20 11:45:20;;;;;;;2.00;1.30;;;;;;;;;;5075359;28;20047;-74
2023/07/20 11:47:46;;;;;;;4.75;1.58;;;;;;;;;;5093672;28;20138;-72
2023/07/20 11:50:13;;;;;;;2.88;1.50;;;;;;;;;;5093880;28;20040;-73
2023/07/20 11:52:40;;;;;;;2.40;1.30;;;;;;;;;;5093965;28;20048;-72
2023/07/20 11:55:08;;;;;;;4.00;1.55;;;;;;;;;;5075799;28;20044;-73
2023/07/20 11:57:34;;;;;;;3.85;1.40;;;;;;;;;;5093745;28;20055;-73
2023/07/20 12:00:08;;;;;;;3.67;1.20;;;;;;;;;;5079374;28;20051;-73
2023/07/20 12:02:34;;;;;;;;;;;;;;;;;;5075299;28;20499;-73
2023/07/20 12:05:00;;;;;;;2.35;1.20;;;;;;;;;;5093581;28;19924;-72
2023/07/20 12:07:27;;;;;;;2.92;1.35;;;;;;;;;;5074724;28;20072;-73
2023/07/20 12:10:07;;;;;;;2.35;1.05;;;;;;;;;;5101600;28;20047;-72
2023/07/20 12:12:34;;;;;;;2.95;1.20;;;;;;;;;;5118015;28;20086;-72
2023/07/20 12:15:16;;;;;;;2.38;1.20;;;;;;;;;;5080982;28;20514;-72
2023/07/20 12:17:43;;;;;;;3.28;1.20;;;;;;;;;;5093671;28;20175;-73
2023/07/20 12:20:09;;;;;;;2.15;1.00;;;;;;;;;;5093686;28;20115;-73
2023/07/20 12:22:44;;;;;;;5.40;1.10;;;;;;;;;;5092013;28;20050;-73
2023/07/20 12:25:10;;;;;;;2.43;1.10;;;;;;;;;;5102073;28;20043;-73
2023/07/20 12:27:37;;;;;;;6.82;1.60;;;;;;;;;;5113784;28;20035;-74
2023/07/20 12:30:04;;;;;;;3.53;1.20;;;;;;;;;;5079400;28;20052;-74
2023/07/20 12:32:31;;;;;;;2.65;1.15;;;;;;;;;;5093054;28;20097;-73
2023/07/20 12:35:00;;;;;;;5.00;1.50;;;;;;;;;;5093376;28;20072;-74
2023/07/20 12:37:26;;;;;;;5.03;1.30;;;;;;;;;;5092420;28;20048;-73
2023/07/20 12:39:53;;;;;;;3.60;1.30;;;;;;;;;;5092682;28;20044;-73
2023/07/20 12:42:19;;;;;;;2.83;1.10;;;;;;;;;;5092650;28;20051;-73
2023/07/20 12:44:45;;;;;;;3.97;1.30;;;;;;;;;;5092296;28;20056;-73
2023/07/20 12:47:11;;;;;;;2.53;1.40;;;;;;;;;;5090204;28;20408;-73
2023/07/20 12:49:39;;;;;;;3.15;1.40;;;;;;;;;;5089857;28;20095;-73
2023/07/20 12:52:05;;;;;;;4.38;1.40;;;;;;;;;;5092490;28;20067;-74
2023/07/20 12:54:32;;;;;;;2.83;1.38;;;;;;;;;;5092753;28;20071;-74
2023/07/20 12:56:59;;;;;;;2.40;1.23;;;;;;;;;;5091601;28;20144;-74
2023/07/20 12:59:25;;;;;;;3.15;1.40;;;;;;;;;;5091348;28;20111;-74
2023/07/20 13:01:51;;;;;;;3.50;1.45;;;;;;;;;;5092656;28;20043;-74
2023/07/20 13:04:17;;;;;;;4.50;1.60;;;;;;;;;;5092808;28;20047;-74
2023/07/20 13:06:43;;;;;;;3.33;1.70;;;;;;;;;;5074311;28;20060;-74
2023/07/20 13:09:09;;;;;;;3.85;1.60;;;;;;;;;;5091798;28;20052;-74
2023/07/20 13:11:36;;;;;;;3.92;1.50;;;;;;;;;;5091951;28;20416;-77
2023/07/20 13:14:02;;;;;;;4.10;1.50;;;;;;;;;;5092095;28;20051;-77
2023/07/20 13:16:28;;;;;;;2.90;1.35;;;;;;;;;;5073428;28;20078;-77
2023/07/20 13:18:54;;;;;;;4.05;1.40;;;;;;;;;;5093049;28;20044;-77
2023/07/20 13:21:22;;;;;;;3.45;1.30;;;;;;;;;;5077015;28;20429;-75
2023/07/20 13:23:48;;;;;;;2.92;1.60;;;;;;;;;;5106092;28;20048;-76
2023/07/20 13:26:16;;;;;;;3.58;1.83;;;;;;;;;;5091658;28;20404;-76
2023/07/20 13:28:42;;;;;;;4.47;1.67;;;;;;;;;;5105294;28;20046;-76
2023/07/20 13:31:10;;;;;;;5.68;1.63;;;;;;;;;;5077449;28;20503;-77
2023/07/20 13:33:36;;;;;;;3.83;1.50;;;;;;;;;;5091776;28;20055;-76
2023/07/20 13:36:05;;;;;;;2.25;1.50;;;;;;;;;;5092366;28;20063;-76
2023/07/20 13:38:31;;;;;;;3.15;1.65;;;;;;;;;;5092031;28;20048;-75
2023/07/20 13:40:58;;;;;;;5.63;1.73;;;;;;;;;;5092348;28;20460;-76
2023/07/20 13:43:25;;;;;;;3.30;1.30;;;;;;;;;;5092527;28;20408;-76
2023/07/20 13:45:51;;;;;;;5.88;1.60;;;;;;;;;;5073485;28;20059;-75
2023/07/20 13:48:19;;;;;;;4.40;1.60;;;;;;;;;;5091784;28;20044;-74
2023/07/20 13:50:45;;;;;;;2.33;1.48;;;;;;;;;;5073401;28;20051;-75
2023/07/20 13:53:13;;;;;;;3.55;1.48;;;;;;;;;;5091155;28;20476;-75
2023/07/20 13:55:39;;;;;;;3.13;1.33;;;;;;;;;;5092060;28;20055;-75
2023/07/20 13:58:05;;;;;;;3.90;1.50;;;;;;;;;;5094139;28;20051;-76
2023/07/20 14:00:32;;;;;;;3.15;1.40;;;;;;;;;;5094487;28;20047;-75
2023/07/20 14:02:59;;;;;;;2.95;1.40;;;;;;;;;;5096123;28;20048;-75
2023/07/20 14:05:25;;;;;;;4.70;1.45;;;;;;;;;;5095617;28;20044;-77
2023/07/20 14:07:51;;;;;;;3.40;1.40;;;;;;;;;;5095138;28;20079;-77
2023/07/20 14:10:18;;;;;;;2.63;1.20;;;;;;;;;;5077048;28;20044;-77
2023/07/20 14:12:45;;;;;;;3.40;1.17;;;;;;;;;;5092474;28;20048;-77
2023/07/20 14:15:11;;;;;;;2.30;1.30;;;;;;;;;;5073228;28;20036;-77
2023/07/20 14:17:37;;;;;;;2.55;1.40;;;;;;;;;;5095644;28;20040;-74
2023/07/20 14:20:08;;;;;;;2.58;1.40;;;;;;;;;;5094842;28;20048;-74
2023/07/20 14:22:34;;;;;;;5.22;1.40;;;;;;;;;;5095722;28;20048;-75
2023/07/20 14:25:00;;;;;;;3.63;1.35;;;;;;;;;;5077900;28;20508;-74
2023/07/20 14:27:26;;;;;;;3.55;1.48;;;;;;;;;;5077441;28;20040;-74
2023/07/20 14:29:53;;;;;;;2.50;1.35;;;;;;;;;;5094745;28;20043;-74
2023/07/20 14:32:19;;;;;;;2.78;1.30;;;;;;;;;;5076634;28;20089;-74
2023/07/20 14:34:45;;;;;;;5.63;1.42;;;;;;;;;;5095704;28;20044;-74
2023/07/20 14:37:12;;;;;;;4.53;1.48;;;;;;;;;;5095497;28;20044;-75
2023/07/20 14:39:38;;;;;;;2.55;1.20;;;;;;;;;;5095498;28;20441;-76
2023/07/20 14:42:05;;;;;;;3.47;1.40;;;;;;;;;;5094238;28;20048;-75
2023/07/20 14:44:31;;;;;;;4.30;1.40;;;;;;;;;;5095307;28;20052;-76